sensor_id;sensor_type;location;lat;lon;timestamp;pressure;altitude;pressure_sealevel;temperature;humidity
48614;BME280;34408;51.426;5.444;2023-04-22T00:02:02;100727.38;;;12.74;59.26
48614;BME280;34408;51.426;5.444;2023-04-22T00:04:30;100734.50;;;12.80;59.21
48614;BME280;34408;51.426;5.444;2023-04-22T00:07:00;100734.75;;;12.78;58.90
48614;BME280;34408;51.426;5.444;2023-04-22T00:09:27;100726.88;;;12.77;59.27
48614;BME280;34408;51.426;5.444;2023-04-22T00:11:56;100732.28;;;12.77;59.00
48614;BME280;34408;51.426;5.444;2023-04-22T00:14:24;100732.75;;;12.74;59.07
48614;BME280;34408;51.426;5.444;2023-04-22T00:16:52;100735.47;;;12.74;58.88
48614;BME280;34408;51.426;5.444;2023-04-22T00:19:19;100734.63;;;12.73;59.27
48614;BME280;34408;51.426;5.444;2023-04-22T00:21:48;100736.75;;;12.71;59.22
48614;BME280;34408;51.426;5.444;2023-04-22T00:24:15;100728.09;;;12.69;58.87
48614;BME280;34408;51.426;5.444;2023-04-22T00:26:43;100729.97;;;12.68;59.21
48614;BME280;34408;51.426;5.444;2023-04-22T00:29:12;100733.94;;;12.66;59.13
48614;BME280;34408;51.426;5.444;2023-04-22T00:31:40;100728.56;;;12.66;58.86
48614;BME280;34408;51.426;5.444;2023-04-22T00:34:08;100734.19;;;12.64;58.70
48614;BME280;34408;51.426;5.444;2023-04-22T00:36:35;100723.44;;;12.53;59.06
48614;BME280;34408;51.426;5.444;2023-04-22T00:39:03;100731.16;;;12.61;58.99
48614;BME280;34408;51.426;5.444;2023-04-22T00:41:32;100733.25;;;12.59;58.85
48614;BME280;34408;51.426;5.444;2023-04-22T00:44:00;100735.97;;;12.59;59.07
48614;BME280;34408;51.426;5.444;2023-04-22T00:46:32;100728.09;;;12.57;59.03
48614;BME280;34408;51.426;5.444;2023-04-22T00:49:01;100730.81;;;12.57;59.27
48614;BME280;34408;51.426;5.444;2023-04-22T00:51:29;100735.84;;;12.54;58.90
48614;BME280;34408;51.426;5.444;2023-04-22T00:53:57;100738.53;;;12.54;58.95
48614;BME280;34408;51.426;5.444;2023-04-22T00:56:27;100746.63;;;12.54;59.03
48614;BME280;34408;51.426;5.444;2023-04-22T00:58:56;100742.31;;;12.53;59.26
48614;BME280;34408;51.426;5.444;2023-04-22T01:01:25;100745.81;;;12.53;58.90
48614;BME280;34408;51.426;5.444;2023-04-22T01:03:54;100734.69;;;12.50;59.25
48614;BME280;34408;51.426;5.444;2023-04-22T01:06:23;100740.06;;;12.50;59.17
48614;BME280;34408;51.426;5.444;2023-04-22T01:08:52;100733.28;;;12.47;59.00
48614;BME280;34408;51.426;5.444;2023-04-22T01:11:20;100731.66;;;12.46;59.28
48614;BME280;34408;51.426;5.444;2023-04-22T01:13:48;100728.94;;;12.46;59.07
48614;BME280;34408;51.426;5.444;2023-04-22T01:16:17;100728.13;;;12.46;58.92
48614;BME280;34408;51.426;5.444;2023-04-22T01:18:45;100729.41;;;12.43;59.26
48614;BME280;34408;51.426;5.444;2023-04-22T01:21:14;100725.09;;;12.42;59.28
48614;BME280;34408;51.426;5.444;2023-04-22T01:23:44;100730.47;;;12.42;59.12
48614;BME280;34408;51.426;5.444;2023-04-22T01:26:12;100723.69;;;12.39;58.94
48614;BME280;34408;51.426;5.444;2023-04-22T01:28:40;100728.25;;;12.39;59.43
48614;BME280;34408;51.426;5.444;2023-04-22T01:31:07;100722.03;;;12.38;59.37
48614;BME280;34408;51.426;5.444;2023-04-22T01:33:36;100726.63;;;12.38;59.08
48614;BME280;34408;51.426;5.444;2023-04-22T01:36:04;100724.75;;;12.38;59.17
48614;BME280;34408;51.426;5.444;2023-04-22T01:38:33;100718.78;;;12.36;59.29
48614;BME280;34408;51.426;5.444;2023-04-22T01:41:02;100725.22;;;12.35;58.98
48614;BME280;34408;51.426;5.444;2023-04-22T01:43:30;100723.56;;;12.34;59.17
48614;BME280;34408;51.426;5.444;2023-04-22T01:46:00;100728.97;;;12.34;59.32
48614;BME280;34408;51.426;5.444;2023-04-22T01:48:29;100728.16;;;12.34;59.34
48614;BME280;34408;51.426;5.444;2023-04-22T01:50:57;100720.31;;;12.32;59.20
48614;BME280;34408;51.426;5.444;2023-04-22T01:53:25;100713.28;;;12.31;59.31
48614;BME280;34408;51.426;5.444;2023-04-22T01:55:53;100718.66;;;12.31;59.46
48614;BME280;34408;51.426;5.444;2023-04-22T01:58:22;100719.72;;;12.30;59.40
48614;BME280;34408;51.426;5.444;2023-04-22T02:00:50;100720.78;;;12.29;59.10
48614;BME280;34408;51.426;5.444;2023-04-22T02:03:17;100726.41;;;12.28;59.45
48614;BME280;34408;51.426;5.444;2023-04-22T02:05:45;100721.00;;;12.28;59.28
48614;BME280;34408;51.426;5.444;2023-04-22T02:08:13;100717.50;;;12.27;59.17
48614;BME280;34408;51.426;5.444;2023-04-22T02:10:41;100721.00;;;12.28;59.37
48614;BME280;34408;51.426;5.444;2023-04-22T02:13:09;100719.59;;;12.25;59.48
48614;BME280;34408;51.426;5.444;2023-04-22T02:15:38;100709.88;;;12.24;59.25
48614;BME280;34408;51.426;5.444;2023-04-22T02:18:06;100716.31;;;12.23;59.61
48614;BME280;34408;51.426;5.444;2023-04-22T02:20:35;100707.41;;;12.23;59.28
48614;BME280;34408;51.426;5.444;2023-04-22T02:23:03;100700.41;;;12.22;59.53
48614;BME280;34408;51.426;5.444;2023-04-22T02:25:31;100703.31;;;12.20;59.44
48614;BME280;34408;51.426;5.444;2023-04-22T02:27:59;100705.44;;;12.18;59.52
48614;BME280;34408;51.426;5.444;2023-04-22T02:30:27;100700.03;;;12.18;59.29
48614;BME280;34408;51.426;5.444;2023-04-22T02:32:57;100698.41;;;12.17;59.66
48614;BME280;34408;51.426;5.444;2023-04-22T02:35:24;100697.81;;;12.15;59.68
48614;BME280;34408;51.426;5.444;2023-04-22T02:37:52;100706.97;;;12.14;59.78
48614;BME280;34408;51.426;5.444;2023-04-22T02:40:20;100708.59;;;12.15;59.67
48614;BME280;34408;51.426;5.444;2023-04-22T02:42:48;100705.09;;;12.15;59.69
48614;BME280;34408;51.426;5.444;2023-04-22T02:45:16;100699.97;;;12.13;59.79
48614;BME280;34408;51.426;5.444;2023-04-22T02:47:44;100700.19;;;12.12;60.05
48614;BME280;34408;51.426;5.444;2023-04-22T02:50:13;100691.53;;;12.10;59.95
48614;BME280;34408;51.426;5.444;2023-04-22T02:52:41;100692.81;;;12.07;59.71
48614;BME280;34408;51.426;5.444;2023-04-22T02:55:09;100703.13;;;12.10;59.81
48614;BME280;34408;51.426;5.444;2023-04-22T02:57:36;100706.06;;;12.09;59.67
48614;BME280;34408;51.426;5.444;2023-04-22T03:00:05;100695.53;;;12.07;59.97
48614;BME280;34408;51.426;5.444;2023-04-22T03:02:34;100701.72;;;12.08;59.87
48614;BME280;34408;51.426;5.444;2023-04-22T03:05:02;100703.84;;;12.05;59.80
48614;BME280;34408;51.426;5.444;2023-04-22T03:07:31;100697.63;;;12.05;59.90
48614;BME280;34408;51.426;5.444;2023-04-22T03:09:59;100688.97;;;12.03;60.02
48614;BME280;34408;51.426;5.444;2023-04-22T03:12:27;100690.84;;;12.02;60.16
48614;BME280;34408;51.426;5.444;2023-04-22T03:14:54;100683.81;;;12.01;59.85
48614;BME280;34408;51.426;5.444;2023-04-22T03:17:22;100683.81;;;12.01;60.16
48614;BME280;34408;51.426;5.444;2023-04-22T03:19:51;100680.28;;;12.01;60.10
48614;BME280;34408;51.426;5.444;2023-04-22T03:22:19;100669.75;;;11.99;59.91
48614;BME280;34408;51.426;5.444;2023-04-22T03:24:48;100666.25;;;11.99;59.72
48614;BME280;34408;51.426;5.444;2023-04-22T03:27:15;100670.00;;;11.98;60.17
48614;BME280;34408;51.426;5.444;2023-04-22T03:29:43;100668.34;;;11.97;59.87
48614;BME280;34408;51.426;5.444;2023-04-22T03:32:11;100657.81;;;11.95;60.13
48614;BME280;34408;51.426;5.444;2023-04-22T03:34:39;100656.19;;;11.94;59.98
48614;BME280;34408;51.426;5.444;2023-04-22T03:37:08;100642.94;;;11.93;60.19
48614;BME280;34408;51.426;5.444;2023-04-22T03:39:35;100650.22;;;11.92;60.25
48614;BME280;34408;51.426;5.444;2023-04-22T03:42:05;100649.38;;;11.92;60.39
48614;BME280;34408;51.426;5.444;2023-04-22T03:44:33;100641.31;;;11.92;60.38
48614;BME280;34408;51.426;5.444;2023-04-22T03:47:01;100647.53;;;11.92;59.91
48614;BME280;34408;51.426;5.444;2023-04-22T03:49:29;100651.25;;;11.91;60.33
48614;BME280;34408;51.426;5.444;2023-04-22T03:51:57;100640.50;;;11.91;60.06
48614;BME280;34408;51.426;5.444;2023-04-22T03:54:25;100640.97;;;11.88;60.60
48614;BME280;34408;51.426;5.444;2023-04-22T03:56:53;100634.53;;;11.89;60.20
48614;BME280;34408;51.426;5.444;2023-04-22T03:59:22;100637.44;;;11.88;60.09
48614;BME280;34408;51.426;5.444;2023-04-22T04:01:50;100627.97;;;11.85;60.23
48614;BME280;34408;51.426;5.444;2023-04-22T04:04:19;100632.06;;;11.88;60.21
48614;BME280;34408;51.426;5.444;2023-04-22T04:06:49;100616.97;;;11.87;60.29
48614;BME280;34408;51.426;5.444;2023-04-22T04:09:17;100613.44;;;11.86;60.39
48614;BME280;34408;51.426;5.444;2023-04-22T04:11:45;100609.94;;;11.86;60.43
48614;BME280;34408;51.426;5.444;2023-04-22T04:14:13;100609.13;;;11.85;60.49
48614;BME280;34408;51.426;5.444;2023-04-22T04:16:42;100607.25;;;11.86;60.46
48614;BME280;34408;51.426;5.444;2023-04-22T04:19:10;100607.47;;;11.84;60.28
48614;BME280;34408;51.426;5.444;2023-04-22T04:21:38;100605.03;;;11.83;60.31
48614;BME280;34408;51.426;5.444;2023-04-22T04:24:06;100611.47;;;11.82;60.52
48614;BME280;34408;51.426;5.444;2023-04-22T04:26:33;100617.09;;;11.80;60.31
48614;BME280;34408;51.426;5.444;2023-04-22T04:29:01;100625.97;;;11.81;60.54
48614;BME280;34408;51.426;5.444;2023-04-22T04:31:29;100618.97;;;11.80;60.32
48614;BME280;34408;51.426;5.444;2023-04-22T04:33:58;100626.44;;;11.78;60.37
48614;BME280;34408;51.426;5.444;2023-04-22T04:36:26;100627.47;;;11.77;60.45
48614;BME280;34408;51.426;5.444;2023-04-22T04:38:54;100621.28;;;11.76;60.63
48614;BME280;34408;51.426;5.444;2023-04-22T04:41:22;100616.94;;;11.75;60.25
48614;BME280;34408;51.426;5.444;2023-04-22T04:43:52;100622.31;;;11.75;60.37
48614;BME280;34408;51.426;5.444;2023-04-22T04:46:20;100634.16;;;11.74;60.39
48614;BME280;34408;51.426;5.444;2023-04-22T04:48:49;100632.28;;;11.74;60.31
48614;BME280;34408;51.426;5.444;2023-04-22T04:51:18;100634.38;;;11.72;60.69
48614;BME280;34408;51.426;5.444;2023-04-22T04:53:46;100626.78;;;11.69;60.34
48614;BME280;34408;51.426;5.444;2023-04-22T04:56:14;100630.28;;;11.70;60.71
48614;BME280;34408;51.426;5.444;2023-04-22T04:58:42;100640.22;;;11.69;60.57
48614;BME280;34408;51.426;5.444;2023-04-22T05:01:09;100635.66;;;11.70;60.46
48614;BME280;34408;51.426;5.444;2023-04-22T05:03:37;100632.16;;;11.69;60.44
48614;BME280;34408;51.426;5.444;2023-04-22T05:06:06;100622.22;;;11.70;60.42
48614;BME280;34408;51.426;5.444;2023-04-22T05:08:35;100624.31;;;11.68;60.59
48614;BME280;34408;51.426;5.444;2023-04-22T05:11:03;100621.28;;;11.64;61.66
48614;BME280;34408;51.426;5.444;2023-04-22T05:13:30;100616.94;;;11.63;61.41
48614;BME280;34408;51.426;5.444;2023-04-22T05:15:58;100608.06;;;11.63;61.29
48614;BME280;34408;51.426;5.444;2023-04-22T05:18:26;100616.13;;;11.63;61.33
48614;BME280;34408;51.426;5.444;2023-04-22T05:20:54;100620.69;;;11.62;61.19
48614;BME280;34408;51.426;5.444;2023-04-22T05:23:24;100620.91;;;11.61;61.10
48614;BME280;34408;51.426;5.444;2023-04-22T05:25:53;100618.47;;;11.59;60.99
48614;BME280;34408;51.426;5.444;2023-04-22T05:28:21;100622.56;;;11.62;61.51
48614;BME280;34408;51.426;5.444;2023-04-22T05:30:49;100619.88;;;11.62;61.07
48614;BME280;34408;51.426;5.444;2023-04-22T05:33:17;100620.91;;;11.61;61.16
48614;BME280;34408;51.426;5.444;2023-04-22T05:35:45;100617.19;;;11.62;61.10
48614;BME280;34408;51.426;5.444;2023-04-22T05:38:12;100606.41;;;11.62;60.89
48614;BME280;34408;51.426;5.444;2023-04-22T05:40:40;100610.97;;;11.61;60.97
48614;BME280;34408;51.426;5.444;2023-04-22T05:43:09;100622.31;;;11.63;61.01
48614;BME280;34408;51.426;5.444;2023-04-22T05:45:37;100612.63;;;11.62;60.81
48614;BME280;34408;51.426;5.444;2023-04-22T05:48:05;100618.00;;;11.62;61.10
48614;BME280;34408;51.426;5.444;2023-04-22T05:50:33;100617.19;;;11.62;60.71
48614;BME280;34408;51.426;5.444;2023-04-22T05:53:00;100612.63;;;11.62;61.27
48614;BME280;34408;51.426;5.444;2023-04-22T05:55:28;100610.75;;;11.63;61.14
48614;BME280;34408;51.426;5.444;2023-04-22T05:57:56;100609.69;;;11.64;61.29
48614;BME280;34408;51.426;5.444;2023-04-22T06:00:25;100619.41;;;11.65;61.23
48614;BME280;34408;51.426;5.444;2023-04-22T06:02:53;100603.25;;;11.65;61.53
48614;BME280;34408;51.426;5.444;2023-04-22T06:05:21;100604.06;;;11.65;61.80
48614;BME280;34408;51.426;5.444;2023-04-22T06:07:49;100607.34;;;11.67;61.80
48614;BME280;34408;51.426;5.444;2023-04-22T06:10:16;100607.94;;;11.69;61.76
48614;BME280;34408;51.426;5.444;2023-04-22T06:12:44;100608.41;;;11.66;61.58
48614;BME280;34408;51.426;5.444;2023-04-22T06:15:12;100613.09;;;11.71;61.93
48614;BME280;34408;51.426;5.444;2023-04-22T06:17:41;100619.28;;;11.71;61.52
48614;BME280;34408;51.426;5.444;2023-04-22T06:20:10;100611.22;;;11.71;61.14
48614;BME280;34408;51.426;5.444;2023-04-22T06:22:38;100611.78;;;11.73;61.52
48614;BME280;34408;51.426;5.444;2023-04-22T06:25:07;100607.81;;;11.76;61.33
48614;BME280;34408;51.426;5.444;2023-04-22T06:27:35;100614.00;;;11.77;61.38
48614;BME280;34408;51.426;5.444;2023-04-22T06:30:03;100616.50;;;11.78;61.29
48614;BME280;34408;51.426;5.444;2023-04-22T06:32:31;100603.63;;;11.80;61.22
48614;BME280;34408;51.426;5.444;2023-04-22T06:35:00;100606.66;;;11.84;61.22
48614;BME280;34408;51.426;5.444;2023-04-22T06:37:28;100587.22;;;11.82;61.11
48614;BME280;34408;51.426;5.444;2023-04-22T06:39:55;100590.28;;;11.85;61.32
48614;BME280;34408;51.426;5.444;2023-04-22T06:42:23;100582.78;;;11.87;61.21
48614;BME280;34408;51.426;5.444;2023-04-22T06:44:51;100588.50;;;11.91;61.33
48614;BME280;34408;51.426;5.444;2023-04-22T06:47:19;100592.03;;;11.91;61.31
48614;BME280;34408;51.426;5.444;2023-04-22T06:49:46;100593.41;;;11.94;61.49
48614;BME280;34408;51.426;5.444;2023-04-22T06:52:17;100600.22;;;11.96;61.46
48614;BME280;34408;51.426;5.444;2023-04-22T06:54:47;100591.06;;;11.97;61.48
48614;BME280;34408;51.426;5.444;2023-04-22T06:57:15;100584.63;;;11.98;61.47
48614;BME280;34408;51.426;5.444;2023-04-22T06:59:42;100590.34;;;12.02;61.57
48614;BME280;34408;51.426;5.444;2023-04-22T07:02:12;100588.25;;;12.04;61.56
48614;BME280;34408;51.426;5.444;2023-04-22T07:04:40;100583.69;;;12.04;61.55
48614;BME280;34408;51.426;5.444;2023-04-22T07:07:08;100586.94;;;12.07;61.29
48614;BME280;34408;51.426;5.444;2023-04-22T07:09:37;100583.78;;;12.10;61.35
48614;BME280;34408;51.426;5.444;2023-04-22T07:12:06;100578.97;;;12.12;61.22
48614;BME280;34408;51.426;5.444;2023-04-22T07:14:33;100577.91;;;12.13;61.62
48614;BME280;34408;51.426;5.444;2023-04-22T07:17:01;100584.13;;;12.13;61.54
48614;BME280;34408;51.426;5.444;2023-04-22T07:19:29;100575.78;;;12.15;61.62
48614;BME280;34408;51.426;5.444;2023-04-22T07:22:00;100578.47;;;12.15;62.04
48614;BME280;34408;51.426;5.444;2023-04-22T07:24:28;100581.97;;;12.15;61.71
48614;BME280;34408;51.426;5.444;2023-04-22T07:26:57;100580.94;;;12.16;61.78
48614;BME280;34408;51.426;5.444;2023-04-22T07:29:27;100595.22;;;12.17;62.03
48614;BME280;34408;51.426;5.444;2023-04-22T07:31:54;100585.25;;;12.17;62.29
48614;BME280;34408;51.426;5.444;2023-04-22T07:34:23;100573.41;;;12.18;62.22
48614;BME280;34408;51.426;5.444;2023-04-22T07:36:51;100584.19;;;12.18;61.75
48614;BME280;34408;51.426;5.444;2023-04-22T07:39:19;100577.75;;;12.19;61.84
48614;BME280;34408;51.426;5.444;2023-04-22T07:41:46;100595.56;;;12.20;62.01
48614;BME280;34408;51.426;5.444;2023-04-22T07:44:16;100586.81;;;12.13;62.61
48614;BME280;34408;51.426;5.444;2023-04-22T07:46:43;100593.09;;;12.19;62.43
48614;BME280;34408;51.426;5.444;2023-04-22T07:49:11;100582.91;;;12.21;62.37
48614;BME280;34408;51.426;5.444;2023-04-22T07:51:40;100580.78;;;12.23;62.45
48614;BME280;34408;51.426;5.444;2023-04-22T07:54:07;100567.31;;;12.23;62.31
48614;BME280;34408;51.426;5.444;2023-04-22T07:56:35;100567.06;;;12.24;62.33
48614;BME280;34408;51.426;5.444;2023-04-22T07:59:03;100564.38;;;12.24;62.24
48614;BME280;34408;51.426;5.444;2023-04-22T08:01:32;100558.75;;;12.26;62.53
48614;BME280;34408;51.426;5.444;2023-04-22T08:04:00;100547.88;;;12.21;62.26
48614;BME280;34408;51.426;5.444;2023-04-22T08:06:28;100548.56;;;12.28;62.69
48614;BME280;34408;51.426;5.444;2023-04-22T08:08:57;100555.34;;;12.30;62.46
48614;BME280;34408;51.426;5.444;2023-04-22T08:11:25;100551.00;;;12.29;62.26
48614;BME280;34408;51.426;5.444;2023-04-22T08:13:52;100551.59;;;12.31;62.33
48614;BME280;34408;51.426;5.444;2023-04-22T08:16:20;100542.59;;;12.26;62.63
48614;BME280;34408;51.426;5.444;2023-04-22T08:18:50;100548.41;;;12.34;62.71
48614;BME280;34408;51.426;5.444;2023-04-22T08:21:18;100540.31;;;12.34;62.82
48614;BME280;34408;51.426;5.444;2023-04-22T08:23:46;100527.66;;;12.35;62.83
48614;BME280;34408;51.426;5.444;2023-04-22T08:26:14;100537.72;;;12.39;63.06
48614;BME280;34408;51.426;5.444;2023-04-22T08:28:42;100532.81;;;12.36;63.35
48614;BME280;34408;51.426;5.444;2023-04-22T08:31:10;100529.16;;;12.43;63.03
48614;BME280;34408;51.426;5.444;2023-04-22T08:33:38;100527.84;;;12.45;63.11
48614;BME280;34408;51.426;5.444;2023-04-22T08:36:08;100516.84;;;12.47;63.49
48614;BME280;34408;51.426;5.444;2023-04-22T08:38:36;100511.19;;;12.48;63.66
48614;BME280;34408;51.426;5.444;2023-04-22T08:41:05;100510.72;;;12.51;63.55
48614;BME280;34408;51.426;5.444;2023-04-22T08:43:33;100511.53;;;12.52;63.48
48614;BME280;34408;51.426;5.444;2023-04-22T08:46:00;100501.09;;;12.55;64.06
48614;BME280;34408;51.426;5.444;2023-04-22T08:48:28;100483.84;;;12.56;63.74
48614;BME280;34408;51.426;5.444;2023-04-22T08:50:57;100495.22;;;12.58;63.65
48614;BME280;34408;51.426;5.444;2023-04-22T08:53:26;100493.31;;;12.59;64.26
48614;BME280;34408;51.426;5.444;2023-04-22T08:55:54;100492.25;;;12.60;63.91
48614;BME280;34408;51.426;5.444;2023-04-22T08:58:23;100477.63;;;12.56;64.11
48614;BME280;34408;51.426;5.444;2023-04-22T09:00:50;100502.06;;;12.66;64.39
48614;BME280;34408;51.426;5.444;2023-04-22T09:03:19;100500.53;;;12.70;64.12
48614;BME280;34408;51.426;5.444;2023-04-22T09:05:50;100500.28;;;12.71;64.69
48614;BME280;34408;51.426;5.444;2023-04-22T09:08:18;100511.41;;;12.75;64.52
48614;BME280;34408;51.426;5.444;2023-04-22T09:10:47;100502.31;;;12.81;65.08
48614;BME280;34408;51.426;5.444;2023-04-22T09:13:15;100507.47;;;12.83;64.72
48614;BME280;34408;51.426;5.444;2023-04-22T09:15:44;100501.84;;;12.84;65.25
48614;BME280;34408;51.426;5.444;2023-04-22T09:18:15;100489.19;;;12.85;65.26
48614;BME280;34408;51.426;5.444;2023-04-22T09:20:46;100492.78;;;12.90;65.25
48614;BME280;34408;51.426;5.444;2023-04-22T09:23:14;100494.31;;;13.03;65.82
48614;BME280;34408;51.426;5.444;2023-04-22T09:25:44;100493.09;;;13.11;66.81
48614;BME280;34408;51.426;5.444;2023-04-22T09:28:18;100486.72;;;13.17;67.05
48614;BME280;34408;51.426;5.444;2023-04-22T09:30:45;100479.66;;;13.16;67.23
48614;BME280;34408;51.426;5.444;2023-04-22T09:33:13;100489.31;;;13.28;67.08
48614;BME280;34408;51.426;5.444;2023-04-22T09:35:42;100484.50;;;13.30;66.48
48614;BME280;34408;51.426;5.444;2023-04-22T09:38:11;100487.28;;;13.35;66.86
48614;BME280;34408;51.426;5.444;2023-04-22T09:40:42;100494.63;;;13.40;66.92
48614;BME280;34408;51.426;5.444;2023-04-22T09:43:10;100486.53;;;13.40;66.99
48614;BME280;34408;51.426;5.444;2023-04-22T09:45:41;100474.84;;;13.34;67.15
48614;BME280;34408;51.426;5.444;2023-04-22T09:48:11;100500.97;;;13.51;67.33
48614;BME280;34408;51.426;5.444;2023-04-22T09:50:42;100494.81;;;13.55;67.76
48614;BME280;34408;51.426;5.444;2023-04-22T09:53:12;100495.63;;;13.56;67.54
48614;BME280;34408;51.426;5.444;2023-04-22T09:55:42;100487.75;;;13.71;67.12
48614;BME280;34408;51.426;5.444;2023-04-22T09:58:11;100498.59;;;13.76;67.54
48614;BME280;34408;51.426;5.444;2023-04-22T10:00:43;100485.16;;;13.81;67.53
48614;BME280;34408;51.426;5.444;2023-04-22T10:03:12;100486.22;;;13.80;67.79
48614;BME280;34408;51.426;5.444;2023-04-22T10:05:41;100494.84;;;13.77;67.36
48614;BME280;34408;51.426;5.444;2023-04-22T10:08:12;100489.69;;;13.76;67.14
48614;BME280;34408;51.426;5.444;2023-04-22T10:10:40;100472.78;;;13.63;67.03
48614;BME280;34408;51.426;5.444;2023-04-22T10:13:08;100495.00;;;13.92;67.54
48614;BME280;34408;51.426;5.444;2023-04-22T10:15:38;100491.72;;;13.90;67.39
48614;BME280;34408;51.426;5.444;2023-04-22T10:18:09;100496.31;;;13.90;67.07
48614;BME280;34408;51.426;5.444;2023-04-22T10:20:40;100507.25;;;14.00;67.20
48614;BME280;34408;51.426;5.444;2023-04-22T10:23:12;100482.34;;;13.98;66.84
48614;BME280;34408;51.426;5.444;2023-04-22T10:25:40;100487.16;;;14.18;66.96
48614;BME280;34408;51.426;5.444;2023-04-22T10:28:09;100485.78;;;14.15;67.22
48614;BME280;34408;51.426;5.444;2023-04-22T10:30:38;100471.66;;;14.08;66.84
48614;BME280;34408;51.426;5.444;2023-04-22T10:33:38;100474.16;;;14.15;67.51
48614;BME280;34408;51.426;5.444;2023-04-22T10:36:07;100467.19;;;14.19;66.93
48614;BME280;34408;51.426;5.444;2023-04-22T10:38:36;100459.06;;;14.19;66.80
48614;BME280;34408;51.426;5.444;2023-04-22T10:41:04;100462.59;;;14.19;67.35
48614;BME280;34408;51.426;5.444;2023-04-22T10:43:42;100471.50;;;14.20;66.92
48614;BME280;34408;51.426;5.444;2023-04-22T10:49:17;100474.81;;;14.27;66.29
48614;BME280;34408;51.426;5.444;2023-04-22T10:51:48;100479.22;;;14.33;66.44
48614;BME280;34408;51.426;5.444;2023-04-22T10:57:22;100482.53;;;14.40;66.93
48614;BME280;34408;51.426;5.444;2023-04-22T10:59:52;100487.72;;;14.42;66.68
48614;BME280;34408;51.426;5.444;2023-04-22T11:02:21;100490.41;;;14.42;66.53
48614;BME280;34408;51.426;5.444;2023-04-22T11:04:50;100477.38;;;14.39;66.60
48614;BME280;34408;51.426;5.444;2023-04-22T11:07:29;100486.03;;;14.41;66.76
48614;BME280;34408;51.426;5.444;2023-04-22T11:10:01;100487.19;;;14.45;66.65
48614;BME280;34408;51.426;5.444;2023-04-22T11:12:41;100486.13;;;14.46;66.27
48614;BME280;34408;51.426;5.444;2023-04-22T11:15:13;100480.72;;;14.46;66.62
48614;BME280;34408;51.426;5.444;2023-04-22T11:17:42;100477.19;;;14.45;66.17
48614;BME280;34408;51.426;5.444;2023-04-22T11:20:13;100482.03;;;14.43;66.77
48614;BME280;34408;51.426;5.444;2023-04-22T11:22:44;100478.53;;;14.43;66.54
48614;BME280;34408;51.426;5.444;2023-04-22T11:25:12;100483.59;;;14.39;66.70
48614;BME280;34408;51.426;5.444;2023-04-22T11:27:41;100492.03;;;14.43;66.59
48614;BME280;34408;51.426;5.444;2023-04-22T11:30:11;100489.34;;;14.43;66.14
48614;BME280;34408;51.426;5.444;2023-04-22T11:32:41;100488.75;;;14.41;66.40
48614;BME280;34408;51.426;5.444;2023-04-22T11:35:12;100492.53;;;14.40;66.52
48614;BME280;34408;51.426;5.444;2023-04-22T11:37:42;100495.47;;;14.38;66.27
48614;BME280;34408;51.426;5.444;2023-04-22T11:40:11;100499.00;;;14.39;66.43
48614;BME280;34408;51.426;5.444;2023-04-22T11:42:56;100499.00;;;14.39;66.33
48614;BME280;34408;51.426;5.444;2023-04-22T11:45:25;100499.81;;;14.39;66.44
48614;BME280;34408;51.426;5.444;2023-04-22T11:47:53;100500.63;;;14.40;66.48
48614;BME280;34408;51.426;5.444;2023-04-22T11:50:24;100495.22;;;14.40;66.39
48614;BME280;34408;51.426;5.444;2023-04-22T11:52:53;100499.56;;;14.41;66.46
48614;BME280;34408;51.426;5.444;2023-04-22T11:55:22;100491.72;;;14.39;66.30
48614;BME280;34408;51.426;5.444;2023-04-22T11:57:54;100495.22;;;14.40;66.18
48614;BME280;34408;51.426;5.444;2023-04-22T12:00:23;100493.59;;;14.39;66.18
48614;BME280;34408;51.426;5.444;2023-04-22T12:02:59;100491.72;;;14.39;66.59
48614;BME280;34408;51.426;5.444;2023-04-22T12:05:33;100499.44;;;14.52;69.34
48614;BME280;34408;51.426;5.444;2023-04-22T12:08:02;100500.00;;;14.54;68.42
48614;BME280;34408;51.426;5.444;2023-04-22T12:10:30;100502.44;;;14.56;67.38
48614;BME280;34408;51.426;5.444;2023-04-22T12:12:59;100494.34;;;14.56;66.96
48614;BME280;34408;51.426;5.444;2023-04-22T12:15:37;100498.38;;;14.53;66.58
48614;BME280;34408;51.426;5.444;2023-04-22T12:18:05;100499.19;;;14.54;66.55
48614;BME280;34408;51.426;5.444;2023-04-22T12:20:35;100506.72;;;14.52;66.90
48614;BME280;34408;51.426;5.444;2023-04-22T12:23:03;100507.56;;;14.52;66.90
48614;BME280;34408;51.426;5.444;2023-04-22T12:25:31;100491.31;;;14.52;66.65
48614;BME280;34408;51.426;5.444;2023-04-22T12:28:00;100489.94;;;14.50;66.73
48614;BME280;34408;51.426;5.444;2023-04-22T12:30:27;100491.84;;;14.49;66.73
48614;BME280;34408;51.426;5.444;2023-04-22T12:32:55;100498.31;;;14.48;67.02
48614;BME280;34408;51.426;5.444;2023-04-22T12:35:23;100502.91;;;14.48;66.80
48614;BME280;34408;51.426;5.444;2023-04-22T12:37:53;100504.78;;;14.47;67.18
48614;BME280;34408;51.426;5.444;2023-04-22T12:40:21;100513.72;;;14.48;66.88
48614;BME280;34408;51.426;5.444;2023-04-22T12:42:49;100522.13;;;14.51;67.44
48614;BME280;34408;51.426;5.444;2023-04-22T12:45:17;100524.94;;;14.61;67.56
48614;BME280;34408;51.426;5.444;2023-04-22T12:47:44;100521.81;;;14.75;67.18
48614;BME280;34408;51.426;5.444;2023-04-22T12:50:12;100511.91;;;14.85;66.94
48614;BME280;34408;51.426;5.444;2023-04-22T12:52:40;100534.88;;;15.15;66.53
48614;BME280;34408;51.426;5.444;2023-04-22T12:55:09;100540.69;;;15.34;65.79
48614;BME280;34408;51.426;5.444;2023-04-22T12:57:37;100546.78;;;15.56;64.98
48614;BME280;34408;51.426;5.444;2023-04-22T13:00:06;100544.44;;;15.75;64.56
48614;BME280;34408;51.426;5.444;2023-04-22T13:02:40;100551.00;;;15.84;64.35
48614;BME280;34408;51.426;5.444;2023-04-22T13:05:09;100542.84;;;15.79;64.13